Terminal Aerodrome Forecast
Issued by NWS Bismarck, ND

Home | Current Version | Previous Version | Graphics & Text | Print | Product List | Glossary On
Versions: 1 2 3 4 5 6 7 8 9 10 11 12 13 14 15 16 17
651
FTUS43 KBIS 212333
TAFBIS
TAF
KBIS 212333Z 2200/2224 33015G23KT P6SM FEW100 FEW250
     FM220200 32008KT P6SM FEW110 FEW250
     FM221700 30018G28KT P6SM FEW080 FEW200=

USA.gov is the U.S. government's official web portal to all federal, state and local government web resources and services.